Time;durP1;ratioP1;P1;durP2;ratioP2;P2;SDS_P1;SDS_P2;PMS_P1;PMS_P2;Temp;Humidity;BMP_temperature;BMP_pressure;BME280_temperature;BME280_humidity;BME280_pressure;Samples;Min_cycle;Max_cycle;Signal;HPM_P1;HPM_P2
2021/01/15 00:02:03;;;;;;;0.60;0.60;;;2.30;99.90;;;;;;5095697;28;20161;-76
2021/01/15 00:04:30;;;;;;;2.53;0.93;;;2.30;99.90;;;;;;5113993;28;20154;-76
2021/01/15 00:06:58;;;;;;;1.27;1.00;;;2.30;99.90;;;;;;5095757;28;20192;-77
2021/01/15 00:09:24;;;;;;;0.50;0.50;;;2.30;99.90;;;;;;5114070;28;20567;-76
2021/01/15 00:11:49;;;;;;;0.53;0.53;;;2.20;99.90;;;;;;5113977;28;20248;-75
2021/01/15 00:14:15;;;;;;;3.30;1.33;;;2.20;99.90;;;;;;5114012;28;20169;-76
2021/01/15 00:16:40;;;;;;;0.63;0.63;;;2.30;99.90;;;;;;5113908;28;20214;-75
2021/01/15 00:19:06;;;;;;;0.47;0.47;;;2.50;99.90;;;;;;5113684;28;20161;-75
2021/01/15 00:21:33;;;;;;;0.77;0.77;;;2.50;99.90;;;;;;5113968;28;20523;-75
2021/01/15 00:24:01;;;;;;;0.30;0.30;;;2.40;99.90;;;;;;5113588;28;20690;-75
2021/01/15 00:26:28;;;;;;;0.83;0.83;;;2.10;99.90;;;;;;5113693;28;20176;-77
2021/01/15 00:28:55;;;;;;;0.47;0.47;;;2.00;99.90;;;;;;5113992;28;20505;-76
2021/01/15 00:31:30;;;;;;;0.63;0.63;;;1.90;99.90;;;;;;5113760;28;20157;-76
2021/01/15 00:33:55;;;;;;;1.00;0.87;;;1.90;99.90;;;;;;5113576;28;20675;-76
2021/01/15 00:36:21;;;;;;;0.30;0.30;;;2.00;99.90;;;;;;5113239;28;20205;-77
2021/01/15 00:38:46;;;;;;;0.37;0.37;;;1.90;99.90;;;;;;5113700;28;20522;-76
2021/01/15 00:41:12;;;;;;;0.47;0.47;;;2.00;99.90;;;;;;5113317;28;20157;-77
2021/01/15 00:43:37;;;;;;;0.40;0.40;;;2.00;99.90;;;;;;5113677;28;20164;-75
2021/01/15 00:46:12;;;;;;;8.50;3.30;;;2.00;99.90;;;;;;5094854;28;20675;-76
2021/01/15 00:48:39;;;;;;;1.17;1.17;;;2.10;99.90;;;;;;5113382;28;20176;-76
2021/01/15 00:51:09;;;;;;;0.50;0.50;;;1.80;99.90;;;;;;5113511;28;20646;-75
2021/01/15 00:53:35;;;;;;;0.50;0.50;;;1.80;99.90;;;;;;5113503;28;20586;-76
2021/01/15 00:56:00;;;;;;;0.27;0.27;;;1.90;99.90;;;;;;5113181;28;20232;-76
2021/01/15 00:58:26;;;;;;;2.00;0.73;;;1.80;99.90;;;;;;5113131;28;20202;-76
2021/01/15 01:00:52;;;;;;;1.00;0.90;;;1.80;99.90;;;;;;5113507;28;20172;-75
2021/01/15 01:03:17;;;;;;;0.70;0.70;;;1.70;99.90;;;;;;5113349;28;20244;-76
2021/01/15 01:05:43;;;;;;;0.50;0.50;;;1.70;99.90;;;;;;5094949;28;20184;-75
2021/01/15 01:08:08;;;;;;;1.07;1.07;;;1.70;99.90;;;;;;5116187;28;20177;-75
2021/01/15 01:10:34;;;;;;;0.30;0.30;;;1.80;99.90;;;;;;5099046;28;20165;-75
2021/01/15 01:13:00;;;;;;;1.80;1.10;;;1.80;99.90;;;;;;5117524;28;20165;-75
2021/01/15 01:15:25;;;;;;;0.93;0.93;;;2.00;99.90;;;;;;5098838;28;20212;-76
2021/01/15 01:17:53;;;;;;;1.20;1.20;;;1.90;99.90;;;;;;5117162;28;20162;-76
2021/01/15 01:20:18;;;;;;;0.53;0.53;;;1.80;99.90;;;;;;5099070;28;20169;-75
2021/01/15 01:22:49;;;;;;;0.30;0.30;;;1.60;99.90;;;;;;5117364;28;20168;-76
2021/01/15 01:25:16;;;;;;;1.00;1.00;;;1.60;99.90;;;;;;5117258;28;20222;-76
2021/01/15 01:27:43;;;;;;;1.57;0.93;;;1.60;99.90;;;;;;5117312;28;20612;-76
2021/01/15 01:30:09;;;;;;;30.97;3.40;;;1.50;99.90;;;;;;5117482;28;20699;-76
2021/01/15 01:32:34;;;;;;;0.87;0.87;;;1.50;99.90;;;;;;5116944;28;20169;-76
2021/01/15 01:35:00;;;;;;;0.50;0.50;;;1.60;99.90;;;;;;5116467;28;20268;-75
2021/01/15 01:37:26;;;;;;;7.83;1.67;;;1.70;99.90;;;;;;5117064;28;20157;-76
2021/01/15 01:39:51;;;;;;;0.40;0.40;;;1.90;99.90;;;;;;5116737;28;20196;-75
2021/01/15 01:42:17;;;;;;;0.60;0.60;;;1.90;99.90;;;;;;5116856;28;20161;-75
2021/01/15 01:44:42;;;;;;;1.37;1.27;;;2.00;99.90;;;;;;5098563;28;20208;-76
2021/01/15 01:47:08;;;;;;;1.17;1.17;;;1.80;99.90;;;;;;5098529;28;20198;-75
2021/01/15 01:49:35;;;;;;;1.07;1.07;;;1.80;99.90;;;;;;5098848;28;20168;-75
2021/01/15 01:52:04;;;;;;;0.30;0.30;;;2.00;99.90;;;;;;5116824;28;20184;-76
2021/01/15 01:54:39;;;;;;;0.40;0.40;;;1.90;99.90;;;;;;5116774;28;20238;-76
2021/01/15 01:57:07;;;;;;;0.67;0.67;;;1.90;99.90;;;;;;5116606;28;20605;-76
2021/01/15 01:59:33;;;;;;;0.60;0.60;;;1.80;99.90;;;;;;5116275;28;20184;-76
2021/01/15 02:01:59;;;;;;;1.03;1.03;;;1.80;99.90;;;;;;5116750;28;20173;-75
2021/01/15 02:04:25;;;;;;;1.43;1.23;;;1.70;99.90;;;;;;5116318;28;20523;-75
2021/01/15 02:06:50;;;;;;;6.90;1.20;;;1.70;99.90;;;;;;5116369;28;20228;-75
2021/01/15 02:09:27;;;;;;;0.50;0.50;;;1.90;99.90;;;;;;5116424;28;20165;-75
2021/01/15 02:12:22;;;;;;;1.20;0.87;;;1.60;99.90;;;;;;5116218;28;20537;-75
2021/01/15 02:15:07;;;;;;;0.30;0.30;;;1.60;99.90;;;;;;5084409;28;20228;-75
2021/01/15 02:17:40;;;;;;;0.60;0.60;;;1.90;99.90;;;;;;5116220;28;20161;-75
2021/01/15 02:20:27;;;;;;;1.03;1.03;;;1.90;99.90;;;;;;5115289;28;20248;-75
2021/01/15 02:23:14;;;;;;;1.97;1.87;;;1.80;99.90;;;;;;5116047;28;20176;-76
2021/01/15 02:26:05;;;;;;;0.40;0.40;;;1.90;99.90;;;;;;5116001;28;20185;-76
2021/01/15 02:28:56;;;;;;;1.03;1.00;;;1.90;99.90;;;;;;5116089;28;20164;-75
2021/01/15 02:31:37;;;;;;;0.90;0.90;;;1.90;99.90;;;;;;5077232;28;20532;-75
2021/01/15 02:34:22;;;;;;;0.50;0.50;;;1.90;99.90;;;;;;5115512;28;20220;-76
2021/01/15 02:37:06;;;;;;;0.70;0.70;;;1.70;99.90;;;;;;5097651;28;20249;-75
2021/01/15 02:39:44;;;;;;;1.50;0.73;;;1.70;99.90;;;;;;5115800;28;20217;-75
2021/01/15 02:42:11;;;;;;;0.50;0.50;;;1.50;99.90;;;;;;5115701;28;20177;-76
2021/01/15 02:44:42;;;;;;;0.60;0.60;;;1.50;99.90;;;;;;5097455;28;20330;-76
2021/01/15 02:47:15;;;;;;;1.77;1.67;;;1.60;99.90;;;;;;5115647;28;20161;-75
2021/01/15 02:49:44;;;;;;;0.40;0.40;;;1.50;99.90;;;;;;5115661;28;20172;-76
2021/01/15 02:52:10;;;;;;;1.13;1.13;;;1.70;99.90;;;;;;5115686;28;20173;-75
2021/01/15 02:54:36;;;;;;;1.10;1.07;;;1.80;99.90;;;;;;5115361;28;20216;-75
2021/01/15 02:57:02;;;;;;;0.37;0.37;;;1.90;99.90;;;;;;5115569;28;20149;-76
2021/01/15 02:59:27;;;;;;;0.77;0.70;;;1.70;99.90;;;;;;5115345;28;20169;-76
2021/01/15 03:02:07;;;;;;;0.73;0.73;;;1.70;99.90;;;;;;5115384;28;20161;-75
2021/01/15 03:04:47;;;;;;;0.50;0.50;;;1.60;99.90;;;;;;5115172;28;20153;-76
2021/01/15 03:07:15;;;;;;;0.60;0.60;;;1.60;99.90;;;;;;5115008;28;20183;-75
2021/01/15 03:09:46;;;;;;;1.20;1.20;;;1.70;99.90;;;;;;5115127;28;20164;-76
2021/01/15 03:12:14;;;;;;;0.43;0.43;;;1.70;99.90;;;;;;5096771;28;20193;-75
2021/01/15 03:14:42;;;;;;;2.23;1.43;;;1.60;99.90;;;;;;5115073;28;20212;-76
2021/01/15 03:17:08;;;;;;;0.40;0.40;;;1.60;99.90;;;;;;5115071;28;20158;-75
2021/01/15 03:19:36;;;;;;;0.87;0.87;;;1.80;99.90;;;;;;5114929;28;20164;-75
2021/01/15 03:22:15;;;;;;;1.07;1.03;;;1.90;99.90;;;;;;5114908;28;20239;-76
2021/01/15 03:24:54;;;;;;;0.47;0.47;;;2.00;99.90;;;;;;5096597;28;20212;-75
2021/01/15 03:27:20;;;;;;;0.70;0.70;;;2.00;99.90;;;;;;5114973;28;20247;-76
2021/01/15 03:29:46;;;;;;;0.83;0.77;;;1.90;99.90;;;;;;5114879;28;20224;-75
2021/01/15 03:32:13;;;;;;;1.00;1.00;;;1.90;99.90;;;;;;5114561;28;20169;-75
2021/01/15 03:34:38;;;;;;;0.37;0.37;;;2.00;99.90;;;;;;5114494;28;20221;-76
2021/01/15 03:37:04;;;;;;;1.77;1.50;;;2.10;99.90;;;;;;5096350;28;20176;-75
2021/01/15 03:39:30;;;;;;;4.80;2.83;;;1.90;99.90;;;;;;5096442;28;20165;-75
2021/01/15 03:41:55;;;;;;;0.60;0.60;;;1.90;99.90;;;;;;5114538;28;20526;-76
2021/01/15 03:44:21;;;;;;;1.90;1.77;;;1.80;99.90;;;;;;5114660;28;20176;-75
2021/01/15 03:46:47;;;;;;;1.10;1.10;;;1.60;99.90;;;;;;5114506;28;20161;-75
2021/01/15 03:49:12;;;;;;;1.07;1.07;;;1.60;99.90;;;;;;5114217;28;20616;-75
2021/01/15 03:51:38;;;;;;;2.00;0.97;;;1.60;99.90;;;;;;5095938;28;20161;-75
2021/01/15 03:54:03;;;;;;;3.00;1.27;;;1.70;99.90;;;;;;5114152;28;20544;-76
2021/01/15 03:56:29;;;;;;;0.60;0.60;;;1.60;99.90;;;;;;5114140;28;20227;-76
2021/01/15 03:58:54;;;;;;;0.93;0.60;;;1.60;99.90;;;;;;5114276;28;20188;-76
2021/01/15 04:01:20;;;;;;;1.90;1.80;;;1.70;99.90;;;;;;5113849;28;20165;-76
2021/01/15 04:03:46;;;;;;;0.63;0.63;;;1.80;99.90;;;;;;5114150;28;20154;-76
2021/01/15 04:06:11;;;;;;;10.07;1.83;;;1.70;99.90;;;;;;5113806;28;20637;-76
2021/01/15 04:08:37;;;;;;;1.87;1.67;;;1.90;99.90;;;;;;5114000;28;20569;-75
2021/01/15 04:11:03;;;;;;;0.40;0.40;;;2.00;99.90;;;;;;5113834;28;20158;-75
2021/01/15 04:13:28;;;;;;;1.73;1.63;;;2.00;99.90;;;;;;5095291;28;20200;-75
2021/01/15 04:15:54;;;;;;;5.97;2.57;;;1.90;99.90;;;;;;5113748;28;20215;-76
2021/01/15 04:18:19;;;;;;;2.73;1.57;;;1.90;99.90;;;;;;5113658;28;20161;-75
2021/01/15 04:20:45;;;;;;;3.50;1.33;;;1.80;99.90;;;;;;5113877;28;20523;-76
2021/01/15 04:23:10;;;;;;;0.50;0.50;;;1.80;99.90;;;;;;5113848;28;20210;-75
2021/01/15 04:25:37;;;;;;;2.17;2.07;;;1.80;99.90;;;;;;5113631;28;20233;-76
2021/01/15 04:28:03;;;;;;;5.33;1.97;;;1.80;99.90;;;;;;5113802;28;20145;-75
2021/01/15 04:30:28;;;;;;;0.93;0.73;;;1.80;99.90;;;;;;5113771;28;20172;-76
2021/01/15 04:32:54;;;;;;;0.63;0.63;;;1.90;99.90;;;;;;5113554;28;20184;-75
2021/01/15 04:35:20;;;;;;;3.50;1.70;;;2.00;99.90;;;;;;5113507;28;20254;-76
2021/01/15 04:37:49;;;;;;;6.27;2.30;;;1.90;99.90;;;;;;5113760;28;20206;-76
2021/01/15 04:40:15;;;;;;;0.83;0.83;;;1.90;99.90;;;;;;5095320;28;20181;-76
2021/01/15 04:42:44;;;;;;;8.43;1.07;;;1.80;99.90;;;;;;5113098;28;20169;-76
2021/01/15 04:45:15;;;;;;;4.73;2.77;;;1.70;99.90;;;;;;5095241;28;20550;-76
2021/01/15 04:47:45;;;;;;;1.30;1.27;;;1.80;99.90;;;;;;5113618;28;20161;-75
2021/01/15 04:50:13;;;;;;;1.87;0.90;;;1.80;99.90;;;;;;5113499;28;20214;-75
2021/01/15 04:52:50;;;;;;;0.57;0.57;;;1.70;99.90;;;;;;5113401;28;20173;-76
2021/01/15 04:55:24;;;;;;;1.33;1.30;;;1.70;99.90;;;;;;5113167;28;20623;-75
2021/01/15 04:57:54;;;;;;;0.50;0.50;;;1.80;99.90;;;;;;5113495;28;20687;-76
2021/01/15 05:00:25;;;;;;;7.00;3.80;;;1.70;99.90;;;;;;5095172;28;20176;-76
2021/01/15 05:02:51;;;;;;;0.93;0.93;;;1.50;99.90;;;;;;5113355;28;20161;-76
2021/01/15 05:05:25;;;;;;;0.40;0.40;;;1.60;99.90;;;;;;5094721;28;20223;-75
2021/01/15 05:08:10;;;;;;;2.57;2.23;;;1.70;99.90;;;;;;5113238;28;20157;-75
2021/01/15 05:10:43;;;;;;;0.53;0.53;;;1.80;99.90;;;;;;5113030;28;20153;-76
2021/01/15 05:13:11;;;;;;;1.00;1.00;;;1.80;99.90;;;;;;5094930;28;20616;-76
2021/01/15 05:15:39;;;;;;;3.03;1.17;;;1.70;99.90;;;;;;5113261;28;20226;-76
2021/01/15 05:18:06;;;;;;;2.10;1.90;;;1.70;99.90;;;;;;5112859;28;20202;-76
2021/01/15 05:20:32;;;;;;;1.23;1.23;;;1.80;99.90;;;;;;5095067;28;20700;-76
2021/01/15 05:23:04;;;;;;;0.70;0.70;;;1.60;99.90;;;;;;5094950;28;20700;-76
2021/01/15 05:25:31;;;;;;;0.30;0.30;;;1.60;99.90;;;;;;5113068;28;20181;-77
2021/01/15 05:27:57;;;;;;;1.73;1.63;;;1.80;99.90;;;;;;5112978;28;20211;-77
2021/01/15 05:30:24;;;;;;;0.77;0.77;;;1.90;99.90;;;;;;5112895;28;20165;-76
2021/01/15 05:32:54;;;;;;;0.50;0.50;;;1.90;99.90;;;;;;5113056;28;20161;-76
2021/01/15 05:35:38;;;;;;;1.30;1.20;;;1.90;99.90;;;;;;5094526;28;20208;-76
2021/01/15 05:38:04;;;;;;;0.70;0.70;;;1.80;99.90;;;;;;5112961;28;20158;-77
2021/01/15 05:40:38;;;;;;;0.70;0.70;;;2.00;99.90;;;;;;5113002;28;20168;-76
2021/01/15 05:43:04;;;;;;;1.00;1.00;;;2.00;99.90;;;;;;5112909;28;20187;-77
2021/01/15 05:45:30;;;;;;;0.60;0.60;;;2.10;99.90;;;;;;5113134;28;20185;-76
2021/01/15 05:47:56;;;;;;;2.13;1.50;;;1.90;99.90;;;;;;5112971;28;20274;-76
2021/01/15 05:50:21;;;;;;;0.60;0.60;;;2.10;99.90;;;;;;5112698;28;20153;-76
2021/01/15 05:52:55;;;;;;;2.77;0.90;;;2.20;99.90;;;;;;5112827;28;20617;-76
2021/01/15 05:55:25;;;;;;;0.80;0.80;;;2.20;99.90;;;;;;5115676;28;20268;-76
2021/01/15 05:57:51;;;;;;;0.83;0.83;;;2.10;99.90;;;;;;5116592;28;20264;-76
2021/01/15 06:00:28;;;;;;;0.43;0.43;;;2.00;99.90;;;;;;5116340;28;20157;-74
2021/01/15 06:02:57;;;;;;;0.53;0.53;;;2.10;99.90;;;;;;5116146;28;20200;-77
2021/01/15 06:05:24;;;;;;;0.60;0.60;;;2.10;99.90;;;;;;5116269;28;20513;-77
2021/01/15 06:07:57;;;;;;;1.10;1.10;;;2.30;99.90;;;;;;5116372;28;20164;-76
2021/01/15 06:10:23;;;;;;;1.50;1.47;;;2.20;99.90;;;;;;5116298;28;20149;-76
2021/01/15 06:12:50;;;;;;;0.60;0.60;;;2.20;99.90;;;;;;5115987;28;20640;-76
2021/01/15 06:15:16;;;;;;;0.80;0.80;;;2.30;99.90;;;;;;5115852;28;20203;-76
2021/01/15 06:17:45;;;;;;;5.00;0.80;;;2.30;99.90;;;;;;5116026;28;20162;-76
2021/01/15 06:20:21;;;;;;;1.23;1.23;;;2.10;99.90;;;;;;5115978;28;20165;-77
2021/01/15 06:22:54;;;;;;;0.73;0.73;;;2.20;99.90;;;;;;5115910;28;20165;-76
2021/01/15 06:25:34;;;;;;;0.73;0.73;;;2.30;99.90;;;;;;5115860;28;20674;-76
2021/01/15 06:28:09;;;;;;;0.50;0.50;;;2.20;99.90;;;;;;5115714;28;20161;-77
2021/01/15 06:30:36;;;;;;;2.80;2.60;;;2.30;99.90;;;;;;5116243;28;20164;-77
2021/01/15 06:33:13;;;;;;;0.30;0.30;;;2.20;99.90;;;;;;5097061;28;20173;-76
2021/01/15 06:35:43;;;;;;;1.52;1.48;;;2.20;99.90;;;;;;5115382;28;20265;-76
2021/01/15 06:38:15;;;;;;;0.40;0.40;;;2.30;99.90;;;;;;5096951;28;20251;-76
2021/01/15 06:40:46;;;;;;;0.20;0.20;;;2.60;99.90;;;;;;5115607;28;20164;-76
2021/01/15 06:43:25;;;;;;;3.90;1.47;;;2.60;99.90;;;;;;5097088;28;20191;-76
2021/01/15 06:46:02;;;;;;;1.13;1.13;;;2.70;99.90;;;;;;5115115;28;20189;-76
2021/01/15 06:48:38;;;;;;;1.07;1.07;;;2.80;99.90;;;;;;5116201;28;20206;-76
2021/01/15 06:51:08;;;;;;;0.65;0.65;;;2.70;99.90;;;;;;5115358;28;20252;-76
2021/01/15 06:53:41;;;;;;;0.97;0.97;;;2.60;99.90;;;;;;5115279;28;20157;-76
2021/01/15 06:56:08;;;;;;;3.03;2.30;;;2.60;99.90;;;;;;5114543;28;20224;-77
2021/01/15 06:58:41;;;;;;;0.50;0.50;;;2.70;99.90;;;;;;5096833;28;20177;-76
2021/01/15 07:01:21;;;;;;;0.47;0.47;;;2.70;99.90;;;;;;5115037;28;20164;-77
2021/01/15 07:04:08;;;;;;;3.15;1.90;;;2.50;99.90;;;;;;5115118;28;20659;-76
2021/01/15 07:06:35;;;;;;;1.80;1.53;;;2.40;99.90;;;;;;5113848;28;20192;-76
2021/01/15 07:09:07;;;;;;;1.60;1.50;;;2.20;99.90;;;;;;5114868;28;20161;-75
2021/01/15 07:11:34;;;;;;;0.37;0.37;;;2.10;99.90;;;;;;5096560;28;20177;-77
2021/01/15 07:14:02;;;;;;;1.17;1.00;;;2.10;99.90;;;;;;5096317;28;20268;-76
2021/01/15 07:16:33;;;;;;;0.97;0.97;;;2.20;99.90;;;;;;5114349;28;20536;-77
2021/01/15 07:19:05;;;;;;;1.27;1.17;;;2.50;99.90;;;;;;5096204;28;20172;-77
2021/01/15 07:21:38;;;;;;;1.27;0.77;;;2.70;99.90;;;;;;5114891;28;20552;-76
2021/01/15 07:24:08;;;;;;;1.50;1.50;;;2.70;99.90;;;;;;5114302;28;20169;-75
2021/01/15 07:26:39;;;;;;;3.85;0.93;;;2.80;99.90;;;;;;5114418;28;20624;-77
2021/01/15 07:29:09;;;;;;;0.50;0.50;;;2.90;99.90;;;;;;5095981;28;20172;-77
2021/01/15 07:31:38;;;;;;;4.37;1.17;;;2.80;99.90;;;;;;5114149;28;20169;-76
2021/01/15 07:34:09;;;;;;;1.10;1.10;;;2.90;99.90;;;;;;5095577;28;20209;-76
2021/01/15 07:36:39;;;;;;;2.97;2.77;;;2.90;99.90;;;;;;5095794;28;20259;-76
2021/01/15 07:39:13;;;;;;;0.43;0.43;;;2.90;99.90;;;;;;5095580;28;20169;-76
2021/01/15 07:41:52;;;;;;;0.60;0.60;;;2.80;99.90;;;;;;5095636;28;20225;-78
2021/01/15 07:44:27;;;;;;;0.53;0.53;;;2.70;99.90;;;;;;5113868;28;20165;-81
2021/01/15 07:46:59;;;;;;;2.83;1.17;;;2.60;99.90;;;;;;5095658;28;20169;-76
2021/01/15 07:49:25;;;;;;;0.73;0.73;;;2.70;99.90;;;;;;5095951;28;20165;-78
2021/01/15 07:52:08;;;;;;;0.93;0.60;;;2.70;99.90;;;;;;5114288;28;20651;-76
2021/01/15 07:54:57;;;;;;;0.40;0.40;;;2.70;99.90;;;;;;5095700;28;20168;-76
2021/01/15 07:57:24;;;;;;;0.70;0.70;;;2.70;99.90;;;;;;5114030;28;20603;-76
2021/01/15 07:59:49;;;;;;;1.17;1.17;;;2.80;99.90;;;;;;5114034;28;20636;-75
2021/01/15 08:02:19;;;;;;;0.57;0.57;;;2.80;99.90;;;;;;5095681;28;20204;-78
2021/01/15 08:04:45;;;;;;;1.43;1.03;;;2.80;99.90;;;;;;5113931;28;20189;-75
2021/01/15 08:07:25;;;;;;;0.43;0.43;;;2.80;99.90;;;;;;5113961;28;20160;-76
2021/01/15 08:09:51;;;;;;;5.20;1.17;;;2.60;99.90;;;;;;5096359;28;20579;-76
2021/01/15 08:12:16;;;;;;;1.70;1.60;;;2.70;99.90;;;;;;5113560;28;20161;-76
2021/01/15 08:14:42;;;;;;;5.73;1.67;;;2.90;99.90;;;;;;5114074;28;20204;-75
2021/01/15 08:17:11;;;;;;;0.47;0.47;;;2.90;99.90;;;;;;5113783;28;20215;-74
2021/01/15 08:19:38;;;;;;;0.40;0.40;;;3.10;99.90;;;;;;5114320;28;20173;-77
2021/01/15 08:22:07;;;;;;;0.50;0.50;;;3.00;99.90;;;;;;5095949;28;20173;-76
2021/01/15 08:24:45;;;;;;;0.67;0.67;;;3.10;99.90;;;;;;5113838;28;20157;-76
2021/01/15 08:27:20;;;;;;;1.43;1.33;;;3.20;99.90;;;;;;5114187;28;20176;-76
2021/01/15 08:29:47;;;;;;;2.90;1.43;;;3.20;99.90;;;;;;5113818;28;20152;-76
2021/01/15 08:32:13;;;;;;;0.33;0.33;;;3.10;99.90;;;;;;5096147;28;20597;-75
2021/01/15 08:34:39;;;;;;;0.73;0.73;;;3.00;99.90;;;;;;5098764;28;20226;-75
2021/01/15 08:37:16;;;;;;;0.83;0.83;;;3.10;99.90;;;;;;5093667;28;20162;-76
2021/01/15 08:39:50;;;;;;;0.80;0.70;;;3.00;99.90;;;;;;5093688;28;20216;-76
2021/01/15 08:42:17;;;;;;;1.37;0.63;;;2.90;99.90;;;;;;5088708;28;20248;-76
2021/01/15 08:44:46;;;;;;;3.53;1.23;;;2.90;99.90;;;;;;5063319;28;20194;-73
2021/01/15 08:47:13;;;;;;;1.17;1.17;;;2.90;99.90;;;;;;5084602;28;20189;-75
2021/01/15 08:49:49;;;;;;;0.80;0.80;;;3.00;99.90;;;;;;5084906;28;20581;-76
2021/01/15 08:52:17;;;;;;;0.37;0.37;;;3.00;99.90;;;;;;5093569;28;20252;-76
2021/01/15 08:54:46;;;;;;;0.90;0.88;;;2.90;99.90;;;;;;5093436;28;20581;-75
2021/01/15 08:57:13;;;;;;;0.73;0.73;;;2.90;99.90;;;;;;5093353;28;20154;-75
2021/01/15 08:59:40;;;;;;;1.65;1.10;;;2.90;99.90;;;;;;5093270;28;20185;-76
2021/01/15 09:02:09;;;;;;;0.75;0.75;;;3.20;99.90;;;;;;5093188;28;20272;-76
2021/01/15 09:04:34;;;;;;;1.03;1.03;;;3.20;99.90;;;;;;5092924;28;20244;-76
2021/01/15 09:07:06;;;;;;;8.30;2.77;;;3.20;99.90;;;;;;5093308;28;20562;-77
2021/01/15 09:09:34;;;;;;;0.80;0.80;;;3.10;99.90;;;;;;5093053;28;20165;-76
2021/01/15 09:12:03;;;;;;;3.13;2.23;;;3.20;99.90;;;;;;5093140;28;20161;-76
2021/01/15 09:14:28;;;;;;;0.82;0.82;;;3.10;99.90;;;;;;5093306;28;20308;-77
2021/01/15 09:16:55;;;;;;;1.08;0.95;;;3.30;99.90;;;;;;5093403;28;20244;-76
2021/01/15 09:19:21;;;;;;;0.80;0.80;;;3.50;99.90;;;;;;5093220;28;20253;-75
2021/01/15 09:21:52;;;;;;;0.40;0.40;;;3.60;99.90;;;;;;5074753;28;20174;-77
2021/01/15 09:24:20;;;;;;;0.60;0.60;;;3.60;99.90;;;;;;5092934;28;20150;-75
2021/01/15 09:26:46;;;;;;;0.40;0.40;;;3.50;99.90;;;;;;5093199;28;20166;-76
2021/01/15 09:29:13;;;;;;;1.05;1.05;;;3.50;99.90;;;;;;5096076;28;20215;-76
2021/01/15 09:31:40;;;;;;;1.75;1.65;;;3.70;99.90;;;;;;5096713;28;20168;-76
2021/01/15 09:34:06;;;;;;;0.30;0.30;;;3.70;99.90;;;;;;5107137;27;20236;-75
2021/01/15 09:36:32;;;;;;;1.38;1.38;;;3.80;99.90;;;;;;5131889;27;20212;-75
2021/01/15 09:38:58;;;;;;;1.10;0.73;;;3.80;99.90;;;;;;5136657;27;20172;-76
2021/01/15 09:41:25;;;;;;;0.82;0.82;;;3.80;99.90;;;;;;5133531;27;20165;-75
2021/01/15 09:43:53;;;;;;;0.70;0.70;;;3.80;99.90;;;;;;5132631;27;20608;-75
2021/01/15 09:46:27;;;;;;;0.77;0.77;;;3.70;99.90;;;;;;5113639;27;20221;-75
2021/01/15 09:48:54;;;;;;;3.85;3.13;;;3.70;99.90;;;;;;5116158;28;20545;-75
2021/01/15 09:51:27;;;;;;;0.90;0.90;;;3.60;99.90;;;;;;5116019;28;20191;-76
2021/01/15 09:53:56;;;;;;;0.57;0.57;;;3.50;99.90;;;;;;5115962;28;20168;-76
2021/01/15 09:56:28;;;;;;;1.10;1.08;;;3.50;99.90;;;;;;5115443;28;20205;-80
2021/01/15 09:58:58;;;;;;;1.13;1.13;;;3.50;99.90;;;;;;5113470;28;20173;-76
2021/01/15 10:01:25;;;;;;;1.45;1.30;;;3.30;99.90;;;;;;5114068;28;20158;-74
2021/01/15 10:03:55;;;;;;;2.30;2.10;;;3.40;99.90;;;;;;5089959;28;20193;-74
2021/01/15 10:06:22;;;;;;;0.47;0.47;;;3.40;99.90;;;;;;5115526;27;20222;-74
2021/01/15 10:08:48;;;;;;;1.27;1.27;;;3.50;99.90;;;;;;5123890;27;20171;-74
2021/01/15 10:11:30;;;;;;;0.50;0.35;;;3.80;99.90;;;;;;5117973;27;20161;-74
2021/01/15 10:13:58;;;;;;;7.05;3.92;;;3.80;99.90;;;;;;5115273;28;20177;-74
2021/01/15 10:16:24;;;;;;;5.60;0.88;;;3.80;99.90;;;;;;5115187;28;20232;-73
2021/01/15 10:18:51;;;;;;;0.57;0.57;;;3.80;99.90;;;;;;5115512;28;20632;-75
2021/01/15 10:21:35;;;;;;;1.33;0.85;;;4.00;99.90;;;;;;5115431;28;20154;-75
2021/01/15 10:24:02;;;;;;;0.38;0.38;;;4.00;99.90;;;;;;5114699;28;20150;-75
2021/01/15 10:26:30;;;;;;;0.70;0.70;;;3.90;99.90;;;;;;5097058;28;20181;-75
2021/01/15 10:29:02;;;;;;;1.73;1.63;;;4.00;99.90;;;;;;5094082;28;21955;-75
2021/01/15 10:31:53;;;;;;;1.15;1.15;;;4.00;99.90;;;;;;5112535;27;20158;-75
2021/01/15 10:34:19;;;;;;;0.40;0.40;;;4.20;99.90;;;;;;5117365;27;20216;-75
2021/01/15 10:36:46;;;;;;;2.45;2.30;;;4.10;99.90;;;;;;5133795;27;20209;-73
2021/01/15 10:39:13;;;;;;;1.05;0.75;;;4.10;99.90;;;;;;5100573;28;20525;-73
2021/01/15 10:41:40;;;;;;;1.98;0.85;;;4.10;99.90;;;;;;5095542;28;20222;-74
2021/01/15 10:44:08;;;;;;;0.50;0.50;;;4.20;99.90;;;;;;5095925;28;20534;-74
2021/01/15 10:46:41;;;;;;;1.25;1.15;;;4.20;99.90;;;;;;5114480;28;20645;-74
2021/01/15 10:49:09;;;;;;;1.23;1.20;;;4.20;99.90;;;;;;5114462;28;20161;-74
2021/01/15 10:51:35;;;;;;;0.60;0.60;;;4.30;99.90;;;;;;5079706;28;20180;-74
2021/01/15 10:54:01;;;;;;;0.43;0.43;;;4.30;99.90;;;;;;5114570;28;20608;-75
2021/01/15 10:56:44;;;;;;;0.50;0.50;;;4.30;99.90;;;;;;5114520;28;20205;-75
2021/01/15 10:59:10;;;;;;;7.45;1.90;;;4.40;99.90;;;;;;5122530;27;20172;-75
2021/01/15 11:01:44;;;;;;;0.60;0.60;;;4.60;99.90;;;;;;5134292;27;20555;-75
2021/01/15 11:04:11;;;;;;;0.85;0.85;;;4.40;99.90;;;;;;5113141;28;20620;-75
2021/01/15 11:06:38;;;;;;;1.45;1.00;;;4.40;99.90;;;;;;5116476;28;20177;-74
2021/01/15 11:09:08;;;;;;;1.33;1.27;;;4.40;99.90;;;;;;5116484;28;20700;-74
2021/01/15 11:11:34;;;;;;;1.23;1.17;;;4.30;99.90;;;;;;5114207;28;20156;-75
2021/01/15 11:14:00;;;;;;;0.68;0.68;;;4.30;99.90;;;;;;5113844;28;20208;-75
2021/01/15 11:16:26;;;;;;;2.30;1.17;;;4.30;99.90;;;;;;5113701;27;20274;-75
2021/01/15 11:18:51;;;;;;;1.80;1.67;;;4.60;99.90;;;;;;5131941;27;20171;-76
2021/01/15 11:21:24;;;;;;;1.15;1.15;;;4.50;99.90;;;;;;5134454;27;20160;-75
2021/01/15 11:23:50;;;;;;;2.58;2.45;;;4.60;99.90;;;;;;5134207;27;20160;-74
2021/01/15 11:26:42;;;;;;;1.00;0.93;;;4.40;99.90;;;;;;5134307;27;20183;-73
2021/01/15 11:29:09;;;;;;;6.00;3.28;;;4.50;99.90;;;;;;5111558;27;20208;-74
2021/01/15 11:31:36;;;;;;;2.28;1.65;;;4.30;99.90;;;;;;5133905;27;20153;-74
2021/01/15 11:34:03;;;;;;;2.55;1.10;;;4.40;99.90;;;;;;5129876;27;20299;-74
2021/01/15 11:36:32;;;;;;;0.40;0.40;;;4.40;99.90;;;;;;5113106;28;20201;-74
2021/01/15 11:39:02;;;;;;;0.50;0.50;;;4.20;99.90;;;;;;5113875;28;20157;-75
2021/01/15 11:41:28;;;;;;;0.45;0.45;;;4.30;99.90;;;;;;5113707;28;20251;-75
2021/01/15 11:43:54;;;;;;;1.23;1.23;;;4.00;99.90;;;;;;5113480;28;20590;-73
2021/01/15 11:46:20;;;;;;;0.85;0.80;;;4.00;99.90;;;;;;5113471;28;20200;-75
2021/01/15 11:48:46;;;;;;;1.83;1.25;;;4.10;99.90;;;;;;5097254;28;20173;-75
2021/01/15 11:51:12;;;;;;;0.77;0.77;;;4.20;99.90;;;;;;5113229;28;20166;-74
2021/01/15 11:53:40;;;;;;;0.60;0.60;;;4.20;99.90;;;;;;5113236;28;20179;-75
2021/01/15 11:56:07;;;;;;;0.70;0.70;;;4.00;99.90;;;;;;5112759;28;20220;-74
2021/01/15 11:58:33;;;;;;;2.40;1.25;;;4.20;99.90;;;;;;5112713;28;20517;-76
2021/01/15 12:00:59;;;;;;;1.35;1.25;;;4.40;99.90;;;;;;5112798;28;20157;-75
2021/01/15 12:03:25;;;;;;;3.65;2.58;;;4.40;99.90;;;;;;5113580;28;20168;-75
2021/01/15 12:05:52;;;;;;;0.80;0.80;;;4.40;99.90;;;;;;5113618;28;20193;-75
2021/01/15 12:08:24;;;;;;;0.55;0.55;;;4.40;99.90;;;;;;5095268;28;20230;-75
2021/01/15 12:10:52;;;;;;;6.97;2.72;;;4.30;99.90;;;;;;5094805;28;20171;-75
2021/01/15 12:13:18;;;;;;;12.70;1.85;;;4.30;99.90;;;;;;5095045;28;20608;-74
2021/01/15 12:15:52;;;;;;;0.65;0.65;;;4.40;99.90;;;;;;5113804;28;20299;-76
2021/01/15 12:18:18;;;;;;;0.60;0.60;;;4.30;99.90;;;;;;5094158;28;20571;-75
2021/01/15 12:20:44;;;;;;;1.63;1.52;;;4.30;99.90;;;;;;5113185;28;20157;-75
2021/01/15 12:23:09;;;;;;;1.60;1.05;;;4.20;99.90;;;;;;5112192;28;20219;-75
2021/01/15 12:25:39;;;;;;;1.10;1.00;;;4.30;99.90;;;;;;5113152;28;20260;-74
2021/01/15 12:28:09;;;;;;;1.75;1.67;;;4.20;99.90;;;;;;5113605;28;20153;-75
2021/01/15 12:30:35;;;;;;;1.00;1.00;;;4.20;99.90;;;;;;5113454;28;20159;-75
2021/01/15 12:33:07;;;;;;;5.93;2.05;;;4.10;99.90;;;;;;5110336;28;20638;-75
2021/01/15 12:35:34;;;;;;;2.15;1.48;;;4.20;99.90;;;;;;5091077;28;20437;-76
2021/01/15 12:38:07;;;;;;;1.08;1.08;;;4.50;99.90;;;;;;5092455;28;20517;-76
2021/01/15 12:40:34;;;;;;;0.85;0.85;;;4.60;99.90;;;;;;5092513;28;20158;-81
2021/01/15 12:43:00;;;;;;;1.27;0.77;;;5.00;99.90;;;;;;5092884;28;20162;-76
2021/01/15 12:45:25;;;;;;;2.80;1.45;;;5.30;99.90;;;;;;5091792;28;20225;-76
2021/01/15 12:47:51;;;;;;;2.10;1.42;;;5.50;99.90;;;;;;5092280;28;20181;-75
2021/01/15 12:50:17;;;;;;;1.33;1.27;;;5.50;99.90;;;;;;5091791;28;20169;-76
2021/01/15 12:52:42;;;;;;;1.55;0.82;;;5.60;99.90;;;;;;5092046;28;20166;-77
2021/01/15 12:55:08;;;;;;;2.63;1.35;;;5.50;99.90;;;;;;5091957;28;20228;-76
2021/01/15 12:57:35;;;;;;;1.98;1.00;;;5.50;99.90;;;;;;5092138;28;20189;-76
2021/01/15 13:00:01;;;;;;;1.02;1.02;;;5.10;99.90;;;;;;5092186;28;20248;-76
2021/01/15 13:02:26;;;;;;;0.30;0.30;;;5.00;99.90;;;;;;5073815;28;20669;-76
2021/01/15 13:04:52;;;;;;;1.38;1.38;;;4.60;99.90;;;;;;5095641;28;20262;-76
2021/01/15 13:07:17;;;;;;;1.80;1.70;;;4.60;99.90;;;;;;5096363;28;20154;-76
2021/01/15 13:09:43;;;;;;;0.77;0.77;;;4.70;99.90;;;;;;5096474;28;20180;-76